Minchumina Information

FAA: MHM - ICAO: PAMH

Minchumina (Airport) Location

State Alaska
County Yukon-Koyukuk
City Minchumina
Minchumina (Airport) is 0 miles southeast of Minchumina, AK.
Latitude 63-53-09.5000N
Longitude 152-18-06.6000W
Elevation 681ft

Minchumina METARs

METAR PAMH 251756Z AUTO 22008KT 10SM OVC044 M09/M12 A3002 RMK AO2 SLP174 60000 T10941122 11061 21094 51036 FZRANO
Altimeter 30.02"
Temperature -9.4°C (15.1°F)
Wind 220° at 8KT
Clouds overcast at 4,400ft
Visibility 10.0mi
Time observed: 2022-01-25T17:56:00Z

Minchumina (Airport) Details

Status Operational
Activation August 1947
Ownership Public
Usage Public
Chart MC GRATH
ATC on-site No
Beacon schedule sunset-sunrise
Beacon color clear green

Minchumina (Airport) Contacts

Owner ALASKA DOT&PF NORTHERN REGION
Owner address NORTHERN REGION, 2301 PEGER ROAD, FAIRBANKS, AK 99709
Owner phone (907) 451-5280
Manager WOODY KNEVEL, OCEAN BEAUTY
Manager address N/A, N/A
Manager phone 206-285-6800

Minchumina Radio Frequencies

Minchumina (Airport) Radio Frequencies

UNICOM N/A
Common traffic advisory frequency (CTAF) 122.9